Pagrindinis puslapis
METAR-TAF:

METAR-TAF

Oro uostai :

Pajala, Švedija

platuma: 67-14-44N, ilguma: 023-04-08E, Aukštis: 165 m

Dabartinis oras

Ataskaita buvo paskelbta 34 minutes, ne 03:50 UTC
Vėjas 7 kt iš Vakarų/Šiaurės Vakarų
Temperatūra -19°C
Drėgmė 84%
Slėgis 991 hPa
Matomumas: 3700 m
sniegas

METAR: ESUP 010350Z AUTO 30007KT 3700 -SN FEW014/// BKN032/// OVC050/// M19/M21 Q0991

Laikas: 05:24 (04:24 UTC)


TAF: trūkstamas

Orai ataskaitas ir orų prognozės (METAR, TAF).

turimą stotys yra geltonos ir raudonos taškus žemėlapyje.

Perkelti pele per norėdami pamatyti stoties vardą.

Tada spustelėkite, norėdami matyti oro stebėjimo ir prognozės.

Norėdami pakeisti žemėlapį: spustelėkite ant žalios mygtukų su juodo kryžiaus žemyn,; žalią mygtuką su brūkšneliu, jei norite nutolinti; arba žalių rodyklių gretimoms žemėlapius.


METAR-TAF: